createdAt,value
2022-12-22T00:00:18.118Z,97.94
2022-12-22T00:01:18.092Z,97.65
2022-12-22T00:02:18.226Z,97.56
2022-12-22T00:03:18.325Z,97.84
2022-12-22T00:04:18.112Z,97.56
2022-12-22T00:05:17.943Z,97.84
2022-12-22T00:06:17.915Z,97.75
2022-12-22T00:07:17.874Z,97.56
2022-12-22T00:08:17.833Z,97.84
2022-12-22T00:09:17.798Z,97.75
2022-12-22T00:10:17.776Z,97.75
2022-12-22T00:11:17.728Z,97.94
2022-12-22T00:12:17.688Z,97.84
2022-12-22T00:13:17.661Z,97.84
2022-12-22T00:14:17.619Z,97.84
2022-12-22T00:15:17.584Z,97.75
2022-12-22T00:16:17.596Z,97.65
2022-12-22T00:17:17.506Z,97.56
2022-12-22T00:18:17.475Z,97.65
2022-12-22T00:19:17.435Z,97.65
2022-12-22T00:20:18.770Z,98.18
2022-12-22T00:21:17.371Z,97.56
2022-12-22T00:22:17.330Z,97.94
2022-12-22T00:23:17.292Z,97.75
2022-12-22T00:24:17.294Z,97.75
2022-12-22T00:25:17.219Z,97.94
2022-12-22T00:26:17.200Z,97.75
2022-12-22T00:27:17.151Z,97.75
2022-12-22T00:28:17.112Z,97.80
2022-12-22T00:29:17.074Z,97.99
2022-12-22T00:30:17.039Z,97.61
2022-12-22T00:31:17.067Z,97.75
2022-12-22T00:32:16.970Z,97.51
2022-12-22T00:33:16.932Z,97.80
2022-12-22T00:34:16.898Z,97.99
2022-12-22T00:35:16.862Z,98.08
2022-12-22T00:36:16.824Z,97.80
2022-12-22T00:37:16.787Z,97.70
2022-12-22T00:38:16.757Z,97.80
2022-12-22T00:39:16.727Z,97.80
2022-12-22T00:40:16.679Z,97.80
2022-12-22T00:41:16.644Z,98.08
2022-12-22T00:42:16.632Z,97.80
2022-12-22T00:43:16.573Z,97.75
2022-12-22T00:44:16.536Z,97.80
2022-12-22T00:45:16.497Z,98.03
2022-12-22T00:46:16.528Z,97.99
2022-12-22T00:47:16.430Z,97.89
2022-12-22T00:48:16.395Z,97.89
2022-12-22T00:49:16.355Z,97.65
2022-12-22T00:50:16.343Z,97.80
2022-12-22T00:51:16.286Z,97.99
2022-12-22T00:52:16.257Z,97.80
2022-12-22T00:53:16.208Z,98.08
2022-12-22T00:54:16.184Z,97.75
2022-12-22T00:55:16.137Z,97.99
2022-12-22T00:56:16.110Z,97.70
2022-12-22T00:57:16.066Z,97.80
2022-12-22T00:58:16.034Z,97.80
2022-12-22T00:59:16.008Z,97.75
2022-12-22T01:00:15.993Z,98.08
2022-12-22T01:01:15.952Z,97.89
2022-12-22T01:02:16.198Z,97.89
2022-12-22T01:03:15.938Z,97.94
2022-12-22T01:04:15.817Z,98.08
2022-12-22T01:05:15.787Z,98.08
2022-12-22T01:06:15.772Z,97.89
2022-12-22T01:07:15.708Z,97.89
2022-12-22T01:08:15.719Z,97.75
2022-12-22T01:09:15.659Z,97.80
2022-12-22T01:10:15.605Z,97.75
2022-12-22T01:11:15.569Z,97.89
2022-12-22T01:12:15.533Z,98.08
2022-12-22T01:13:15.496Z,97.70
2022-12-22T01:14:15.462Z,97.89
2022-12-22T01:15:15.419Z,97.70
2022-12-22T01:16:15.435Z,97.89
2022-12-22T01:17:15.352Z,97.99
2022-12-22T01:18:15.322Z,97.80
2022-12-22T01:19:15.282Z,97.70
2022-12-22T01:20:15.240Z,97.80
2022-12-22T01:21:15.210Z,97.80
2022-12-22T01:22:15.175Z,97.61
2022-12-22T01:23:15.136Z,97.70
2022-12-22T01:24:15.106Z,97.51
2022-12-22T01:25:15.075Z,97.51
2022-12-22T01:26:15.043Z,97.70
2022-12-22T01:27:14.994Z,97.51
2022-12-22T01:28:14.968Z,97.51
2022-12-22T01:29:14.917Z,97.70
2022-12-22T01:30:14.885Z,97.70
2022-12-22T01:31:14.911Z,97.51
2022-12-22T01:32:14.825Z,97.70
2022-12-22T01:33:14.788Z,97.70
2022-12-22T01:34:14.747Z,97.80
2022-12-22T01:35:14.705Z,96.94
2022-12-22T01:36:14.665Z,97.80
2022-12-22T01:37:14.630Z,96.75
2022-12-22T01:38:14.600Z,96.84
2022-12-22T01:39:14.569Z,96.75
2022-12-22T01:40:14.542Z,97.03
2022-12-22T01:41:14.494Z,96.84
2022-12-22T01:42:14.453Z,97.13
2022-12-22T01:43:14.433Z,97.32
2022-12-22T01:44:14.382Z,97.27
2022-12-22T01:45:14.346Z,97.32
2022-12-22T01:46:14.360Z,96.94
2022-12-22T01:47:14.281Z,96.84
2022-12-22T01:48:14.240Z,97.32
2022-12-22T01:49:14.204Z,96.56
2022-12-22T01:50:14.164Z,97.08
2022-12-22T01:51:14.132Z,96.70
2022-12-22T01:52:14.091Z,96.65
2022-12-22T01:53:19.666Z,96.84
2022-12-22T01:54:14.039Z,96.84
2022-12-22T01:55:13.989Z,96.70
2022-12-22T01:56:13.957Z,97.03
2022-12-22T01:57:13.917Z,96.84
2022-12-22T01:58:13.902Z,96.84
2022-12-22T01:59:13.898Z,96.94
2022-12-22T02:00:13.817Z,96.60
2022-12-22T02:01:13.826Z,96.75
2022-12-22T02:02:13.833Z,96.46
2022-12-22T02:03:13.708Z,96.46
2022-12-22T02:04:13.657Z,96.84
2022-12-22T02:05:13.637Z,96.94
2022-12-22T02:06:13.594Z,96.56
2022-12-22T02:07:13.555Z,96.70
2022-12-22T02:08:13.519Z,96.70
2022-12-22T02:09:13.482Z,96.56
2022-12-22T02:10:13.450Z,96.56
2022-12-22T02:11:13.431Z,96.70
2022-12-22T02:12:13.389Z,96.56
2022-12-22T02:13:13.338Z,96.89
2022-12-22T02:14:13.365Z,96.75
2022-12-22T02:15:13.305Z,96.75
2022-12-22T02:16:13.265Z,96.75
2022-12-22T02:17:13.198Z,96.75
2022-12-22T02:18:13.173Z,96.70
2022-12-22T02:19:13.121Z,96.22
2022-12-22T02:20:13.092Z,96.80
2022-12-22T02:21:13.053Z,96.75
2022-12-22T02:22:13.016Z,96.75
2022-12-22T02:23:12.984Z,96.80
2022-12-22T02:24:12.943Z,96.27
2022-12-22T02:25:12.916Z,96.56
2022-12-22T02:26:12.869Z,96.46
2022-12-22T02:27:12.847Z,96.94
2022-12-22T02:28:12.806Z,96.46
2022-12-22T02:29:12.774Z,96.41
2022-12-22T02:30:12.734Z,96.56
2022-12-22T02:31:12.705Z,96.36
2022-12-22T02:32:12.651Z,96.17
2022-12-22T02:33:12.625Z,96.41
2022-12-22T02:34:12.582Z,96.60
2022-12-22T02:35:12.551Z,96.32
2022-12-22T02:36:12.516Z,96.65
2022-12-22T02:37:12.474Z,96.17
2022-12-22T02:38:12.440Z,95.75
2022-12-22T02:39:12.418Z,95.75
2022-12-22T02:40:12.375Z,95.84
2022-12-22T02:41:12.334Z,95.94
2022-12-22T02:42:12.295Z,95.56
2022-12-22T02:43:12.260Z,95.65
2022-12-22T02:44:12.237Z,95.46
2022-12-22T02:45:12.193Z,95.27
2022-12-22T02:46:12.231Z,95.12
2022-12-22T02:47:12.112Z,95.08
2022-12-22T02:48:12.091Z,94.98
2022-12-22T02:49:12.050Z,94.98
2022-12-22T02:50:12.003Z,94.65
2022-12-22T02:51:11.974Z,94.70
2022-12-22T02:52:11.932Z,94.22
2022-12-22T02:53:11.910Z,94.13
2022-12-22T02:54:11.860Z,93.74
2022-12-22T02:55:11.825Z,93.93
2022-12-22T02:56:11.791Z,94.13
2022-12-22T02:57:11.751Z,93.27
2022-12-22T02:58:11.723Z,93.27
2022-12-22T02:59:11.694Z,93.55
2022-12-22T03:00:11.650Z,92.89
2022-12-22T03:01:11.607Z,93.03
2022-12-22T03:02:11.780Z,93.12
2022-12-22T03:03:11.763Z,92.89
2022-12-22T03:04:11.511Z,93.27
2022-12-22T03:05:11.493Z,92.79
2022-12-22T03:06:11.425Z,92.50
2022-12-22T03:07:11.388Z,92.46
2022-12-22T03:08:11.355Z,92.46
2022-12-22T03:09:11.328Z,92.22
2022-12-22T03:10:11.289Z,91.74
2022-12-22T03:11:11.266Z,91.84
2022-12-22T03:12:11.209Z,91.79
2022-12-22T03:13:11.178Z,91.22
2022-12-22T03:14:11.145Z,91.50
2022-12-22T03:15:11.103Z,91.46
2022-12-22T03:16:11.114Z,91.31
2022-12-22T03:17:11.029Z,91.36
2022-12-22T03:18:11.025Z,91.31
2022-12-22T03:19:10.977Z,91.27
2022-12-22T03:20:10.923Z,90.45
2022-12-22T03:21:10.888Z,90.60
2022-12-22T03:22:10.854Z,90.08
2022-12-22T03:23:10.814Z,90.03
2022-12-22T03:24:10.775Z,90.03
2022-12-22T03:25:10.741Z,89.46
2022-12-22T03:26:10.722Z,89.03
2022-12-22T03:27:10.667Z,88.84
2022-12-22T03:28:10.633Z,87.79
2022-12-22T03:29:10.599Z,87.50
2022-12-22T03:30:10.571Z,87.12
2022-12-22T03:31:10.574Z,86.65
2022-12-22T03:32:10.489Z,86.83
2022-12-22T03:33:10.454Z,86.16
2022-12-22T03:34:10.427Z,86.26
2022-12-22T03:35:10.381Z,85.60
2022-12-22T03:36:10.339Z,85.69
2022-12-22T03:37:10.306Z,85.12
2022-12-22T03:38:10.270Z,85.02
2022-12-22T03:39:10.239Z,84.74
2022-12-22T03:40:10.200Z,84.26
2022-12-22T03:41:10.161Z,84.36
2022-12-22T03:42:10.128Z,84.64
2022-12-22T03:43:10.090Z,84.07
2022-12-22T03:44:10.056Z,84.16
2022-12-22T03:45:10.020Z,83.69
2022-12-22T03:46:09.985Z,83.97
2022-12-22T03:47:09.980Z,83.69
2022-12-22T03:48:09.909Z,83.21
2022-12-22T03:49:09.877Z,83.31
2022-12-22T03:50:09.836Z,82.83
2022-12-22T03:51:09.797Z,82.17
2022-12-22T03:52:09.765Z,82.17
2022-12-22T03:53:09.730Z,81.97
2022-12-22T03:54:09.691Z,82.35
2022-12-22T03:55:09.658Z,81.59
2022-12-22T03:56:09.619Z,81.21
2022-12-22T03:57:09.591Z,81.12
2022-12-22T03:58:09.544Z,80.44
2022-12-22T03:59:09.522Z,80.35
2022-12-22T04:00:09.474Z,79.59
2022-12-22T04:01:09.505Z,80.07
2022-12-22T04:02:09.519Z,79.68
2022-12-22T04:03:09.498Z,79.30
2022-12-22T04:04:09.324Z,79.11
2022-12-22T04:05:09.297Z,79.17
2022-12-22T04:06:09.273Z,78.44
2022-12-22T04:07:09.222Z,78.44
2022-12-22T04:08:09.180Z,77.78
2022-12-22T04:09:09.151Z,77.97
2022-12-22T04:10:09.110Z,77.97
2022-12-22T04:11:09.079Z,77.40
2022-12-22T04:12:09.039Z,77.40
2022-12-22T04:13:09.004Z,77.55
2022-12-22T04:14:08.962Z,77.20
2022-12-22T04:15:08.937Z,76.73
2022-12-22T04:16:08.949Z,76.16
2022-12-22T04:17:08.873Z,75.68
2022-12-22T04:18:08.853Z,75.78
2022-12-22T04:19:08.787Z,75.30
2022-12-22T04:20:08.748Z,75.01
2022-12-22T04:21:08.718Z,74.44
2022-12-22T04:22:08.699Z,74.06
2022-12-22T04:23:08.644Z,73.49
2022-12-22T04:24:08.606Z,73.39
2022-12-22T04:25:08.567Z,72.72
2022-12-22T04:26:08.532Z,72.82
2022-12-22T04:27:08.517Z,72.25
2022-12-22T04:28:08.460Z,72.25
2022-12-22T04:29:08.428Z,71.68
2022-12-22T04:30:08.396Z,71.48
2022-12-22T04:31:08.357Z,70.53
2022-12-22T04:32:08.404Z,70.53
2022-12-22T04:33:08.285Z,70.25
2022-12-22T04:34:08.247Z,70.15
2022-12-22T04:35:08.210Z,69.48
2022-12-22T04:36:08.174Z,69.29
2022-12-22T04:37:16.860Z,68.72
2022-12-22T04:38:08.108Z,68.72
2022-12-22T04:39:08.067Z,68.15
2022-12-22T04:40:08.063Z,67.77
2022-12-22T04:41:07.993Z,67.68
2022-12-22T04:42:07.959Z,67.86
2022-12-22T04:43:07.923Z,67.00
2022-12-22T04:44:07.888Z,66.63
2022-12-22T04:45:07.856Z,65.48
2022-12-22T04:46:07.848Z,65.58
2022-12-22T04:47:07.782Z,65.00
2022-12-22T04:48:07.740Z,65.00
2022-12-22T04:49:07.704Z,64.62
2022-12-22T04:50:07.674Z,64.24
2022-12-22T04:51:07.629Z,64.53
2022-12-22T04:52:07.607Z,63.96
2022-12-22T04:53:07.576Z,63.76
2022-12-22T04:54:07.541Z,63.39
2022-12-22T04:55:07.493Z,63.00
2022-12-22T04:56:07.459Z,62.72
2022-12-22T04:57:07.422Z,62.62
2022-12-22T04:58:07.397Z,62.24
2022-12-22T04:59:07.345Z,61.67
2022-12-22T05:00:07.324Z,61.67
2022-12-22T05:01:07.305Z,61.19
2022-12-22T05:02:07.444Z,61.10
2022-12-22T05:03:07.240Z,61.38
2022-12-22T05:04:07.185Z,61.57
2022-12-22T05:05:07.133Z,61.38
2022-12-22T05:06:07.104Z,60.52
2022-12-22T05:07:07.068Z,61.19
2022-12-22T05:08:07.022Z,60.72
2022-12-22T05:09:06.986Z,60.72
2022-12-22T05:10:06.977Z,60.33
2022-12-22T05:11:06.921Z,60.24
2022-12-22T05:12:06.883Z,59.76
2022-12-22T05:13:06.849Z,59.86
2022-12-22T05:14:07.524Z,60.05
2022-12-22T05:15:06.773Z,59.86
2022-12-22T05:16:06.888Z,59.19
2022-12-22T05:17:06.805Z,59.67
2022-12-22T05:18:06.666Z,59.76
2022-12-22T05:19:06.632Z,59.38
2022-12-22T05:20:06.599Z,58.62
2022-12-22T05:21:06.562Z,58.52
2022-12-22T05:22:06.518Z,58.91
2022-12-22T05:23:06.484Z,58.72
2022-12-22T05:24:06.450Z,59.28
2022-12-22T05:25:06.409Z,58.72
2022-12-22T05:26:06.388Z,58.62
2022-12-22T05:27:06.340Z,58.33
2022-12-22T05:28:06.305Z,58.72
2022-12-22T05:29:06.271Z,58.14
2022-12-22T05:30:06.236Z,58.14
2022-12-22T05:31:06.294Z,58.14
2022-12-22T05:32:06.166Z,57.95
2022-12-22T05:33:06.125Z,57.76
2022-12-22T05:34:06.097Z,57.28
2022-12-22T05:35:06.067Z,57.76
2022-12-22T05:36:06.010Z,57.38
2022-12-22T05:37:05.979Z,56.81
2022-12-22T05:38:05.944Z,56.71
2022-12-22T05:39:05.909Z,56.90
2022-12-22T05:40:05.874Z,56.90
2022-12-22T05:41:05.837Z,56.81
2022-12-22T05:42:05.817Z,56.90
2022-12-22T05:43:05.769Z,56.52
2022-12-22T05:44:05.731Z,57.00
2022-12-22T05:45:05.697Z,56.62
2022-12-22T05:46:05.752Z,56.62
2022-12-22T05:47:05.634Z,56.71
2022-12-22T05:48:05.588Z,56.52
2022-12-22T05:49:05.565Z,56.62
2022-12-22T05:50:05.518Z,56.62
2022-12-22T05:51:05.485Z,56.52
2022-12-22T05:52:05.441Z,56.71
2022-12-22T05:53:05.412Z,56.62
2022-12-22T05:54:05.375Z,56.71
2022-12-22T05:55:05.362Z,56.71
2022-12-22T05:56:05.317Z,56.71
2022-12-22T05:57:05.279Z,56.24
2022-12-22T05:58:05.232Z,56.62
2022-12-22T05:59:05.196Z,56.52
2022-12-22T06:00:05.161Z,56.62
2022-12-22T06:01:05.127Z,55.95
2022-12-22T06:02:05.163Z,55.66
2022-12-22T06:03:05.114Z,55.95
2022-12-22T06:04:05.202Z,55.66
2022-12-22T06:05:05.060Z,55.47
2022-12-22T06:06:04.968Z,55.66
2022-12-22T06:07:04.910Z,55.66
2022-12-22T06:08:04.885Z,55.28
2022-12-22T06:09:04.835Z,55.95
2022-12-22T06:10:09.737Z,57.00
2022-12-22T06:11:04.758Z,57.19
2022-12-22T06:12:04.730Z,58.14
2022-12-22T06:13:04.690Z,57.95
2022-12-22T06:14:04.668Z,57.28
2022-12-22T06:15:04.625Z,57.19
2022-12-22T06:16:04.609Z,56.52
2022-12-22T06:17:04.541Z,56.62
2022-12-22T06:18:04.511Z,55.76
2022-12-22T06:19:04.479Z,55.57
2022-12-22T06:20:04.444Z,55.57
2022-12-22T06:21:04.402Z,55.66
2022-12-22T06:22:04.363Z,55.85
2022-12-22T06:23:04.332Z,56.90
2022-12-22T06:24:04.299Z,57.09
2022-12-22T06:25:04.302Z,56.52
2022-12-22T06:26:04.226Z,56.14
2022-12-22T06:27:04.189Z,56.04
2022-12-22T06:28:04.147Z,56.52
2022-12-22T06:29:04.114Z,56.71
2022-12-22T06:30:04.091Z,58.43
2022-12-22T06:31:04.099Z,58.91
2022-12-22T06:32:04.008Z,58.62
2022-12-22T06:33:03.978Z,58.52
2022-12-22T06:34:03.946Z,58.14
2022-12-22T06:35:03.894Z,57.95
2022-12-22T06:36:03.905Z,57.67
2022-12-22T06:37:03.825Z,57.57
2022-12-22T06:38:03.829Z,56.71
2022-12-22T06:39:03.760Z,56.71
2022-12-22T06:40:03.715Z,56.71
2022-12-22T06:41:04.107Z,57.38
2022-12-22T06:42:03.644Z,57.28
2022-12-22T06:43:08.373Z,57.38
2022-12-22T06:44:03.575Z,57.76
2022-12-22T06:45:03.553Z,57.95
2022-12-22T06:46:03.596Z,58.14
2022-12-22T06:47:03.463Z,58.33
2022-12-22T06:48:03.430Z,57.95
2022-12-22T06:49:03.392Z,58.40
2022-12-22T06:50:03.355Z,58.40
2022-12-22T06:51:03.331Z,58.02
2022-12-22T06:52:03.292Z,58.50
2022-12-22T06:53:03.255Z,57.82
2022-12-22T06:54:03.228Z,58.04
2022-12-22T06:55:03.176Z,57.64
2022-12-22T06:56:03.138Z,57.26
2022-12-22T06:57:03.109Z,57.38
2022-12-22T06:58:03.071Z,57.64
2022-12-22T06:59:03.038Z,57.64
2022-12-22T07:00:03.014Z,57.35
2022-12-22T07:01:02.964Z,57.64
2022-12-22T07:02:03.142Z,57.73
2022-12-22T07:03:03.050Z,57.73
2022-12-22T07:04:02.910Z,57.26
2022-12-22T07:05:02.818Z,57.07
2022-12-22T07:06:02.789Z,56.71
2022-12-22T07:07:02.748Z,56.71
2022-12-22T07:08:08.553Z,56.59
2022-12-22T07:09:02.671Z,56.68
2022-12-22T07:10:02.632Z,57.16
2022-12-22T07:11:02.611Z,57.82
2022-12-22T07:12:02.563Z,58.11
2022-12-22T07:13:02.526Z,58.11
2022-12-22T07:14:02.491Z,57.82
2022-12-22T07:15:02.465Z,58.40
2022-12-22T07:16:02.573Z,58.21
2022-12-22T07:17:02.380Z,58.11
2022-12-22T07:18:02.346Z,58.21
2022-12-22T07:19:02.306Z,57.82
2022-12-22T07:20:02.279Z,57.64
2022-12-22T07:21:02.230Z,57.92
2022-12-22T07:22:02.198Z,57.92
2022-12-22T07:23:02.165Z,57.73
2022-12-22T07:24:02.126Z,58.11
2022-12-22T07:25:02.090Z,58.02
2022-12-22T07:26:02.050Z,57.82
2022-12-22T07:27:02.018Z,58.11
2022-12-22T07:28:01.981Z,57.92
2022-12-22T07:29:01.948Z,57.82
2022-12-22T07:30:01.903Z,58.40
2022-12-22T07:31:01.917Z,58.30
2022-12-22T07:32:01.840Z,58.11
2022-12-22T07:33:01.795Z,58.02
2022-12-22T07:34:01.777Z,58.40
2022-12-22T07:35:05.526Z,57.82
2022-12-22T07:36:01.697Z,58.11
2022-12-22T07:37:01.652Z,58.21
2022-12-22T07:38:01.617Z,57.82
2022-12-22T07:39:01.580Z,58.11
2022-12-22T07:40:01.568Z,58.11
2022-12-22T07:41:05.152Z,57.82
2022-12-22T07:42:01.475Z,57.80
2022-12-22T07:43:01.438Z,57.35
2022-12-22T07:44:01.395Z,56.97
2022-12-22T07:45:01.367Z,56.78
2022-12-22T07:46:01.494Z,56.21
2022-12-22T07:47:01.343Z,55.63
2022-12-22T07:48:01.256Z,55.44
2022-12-22T07:49:01.212Z,56.21
2022-12-22T07:50:01.185Z,55.92
2022-12-22T07:51:01.147Z,55.83
2022-12-22T07:52:01.120Z,56.21
2022-12-22T07:53:01.069Z,55.42
2022-12-22T07:54:01.031Z,55.44
2022-12-22T07:55:01.003Z,54.39
2022-12-22T07:56:00.970Z,54.75
2022-12-22T07:57:00.930Z,55.04
2022-12-22T07:58:00.895Z,54.49
2022-12-22T07:59:00.847Z,54.49
2022-12-22T08:00:00.822Z,54.59
2022-12-22T08:01:00.782Z,54.21
2022-12-22T08:02:00.873Z,54.21
2022-12-22T08:03:00.961Z,54.59
2022-12-22T08:04:00.669Z,54.68
2022-12-22T08:05:00.739Z,54.59
2022-12-22T08:06:00.599Z,54.21
2022-12-22T08:07:00.561Z,54.78
2022-12-22T08:08:00.528Z,54.11
2022-12-22T08:09:00.502Z,54.02
2022-12-22T08:10:00.457Z,53.92
2022-12-22T08:11:00.416Z,53.25
2022-12-22T08:12:00.385Z,52.78
2022-12-22T08:13:00.402Z,52.56
2022-12-22T08:14:01.845Z,52.47
2022-12-22T08:15:00.276Z,51.16
2022-12-22T08:16:00.255Z,50.59
2022-12-22T08:17:00.196Z,49.82
2022-12-22T08:18:00.163Z,49.26
2022-12-22T08:19:00.150Z,48.68
2022-12-22T08:20:00.110Z,47.73
2022-12-22T08:21:00.057Z,46.87
2022-12-22T08:22:00.040Z,46.87
2022-12-22T08:22:59.987Z,45.83
2022-12-22T08:23:59.938Z,45.92
2022-12-22T08:24:59.913Z,45.06
2022-12-22T08:25:59.882Z,44.01
2022-12-22T08:26:59.839Z,43.16
2022-12-22T08:27:59.801Z,42.30
2022-12-22T08:28:59.757Z,41.53
2022-12-22T08:29:59.727Z,39.92
2022-12-22T08:30:59.686Z,38.96
2022-12-22T08:31:59.725Z,36.58
2022-12-22T08:32:59.614Z,35.72
2022-12-22T08:33:59.582Z,35.15
2022-12-22T08:34:59.540Z,34.87
2022-12-22T08:36:05.832Z,34.48
2022-12-22T08:36:59.487Z,34.11
2022-12-22T08:37:59.443Z,33.34
2022-12-22T08:38:59.396Z,32.39
2022-12-22T08:39:59.355Z,31.44
2022-12-22T08:40:59.324Z,30.29
2022-12-22T08:41:59.298Z,29.82
2022-12-22T08:42:59.380Z,29.25
2022-12-22T08:43:59.210Z,29.44
2022-12-22T08:44:59.171Z,29.15
2022-12-22T08:45:59.140Z,29.25
2022-12-22T08:46:59.221Z,28.49
2022-12-22T08:47:59.095Z,28.39
2022-12-22T08:48:59.030Z,27.91
2022-12-22T08:49:59.007Z,27.53
2022-12-22T08:50:58.960Z,26.96
2022-12-22T08:51:58.928Z,26.39
2022-12-22T08:52:58.887Z,26.48
2022-12-22T08:54:06.840Z,26.39
2022-12-22T08:54:58.812Z,26.48
2022-12-22T08:55:58.783Z,26.48
2022-12-22T08:56:58.753Z,26.58
2022-12-22T08:57:58.861Z,26.77
2022-12-22T08:58:58.670Z,26.67
2022-12-22T08:59:58.634Z,26.96
2022-12-22T09:00:58.644Z,27.25
2022-12-22T09:01:58.659Z,27.44
2022-12-22T09:02:58.927Z,27.44
2022-12-22T09:03:58.487Z,27.25
2022-12-22T09:04:58.451Z,27.25
2022-12-22T09:05:58.416Z,27.34
2022-12-22T09:06:58.384Z,26.86
2022-12-22T09:07:58.340Z,27.06
2022-12-22T09:08:58.313Z,26.96
2022-12-22T09:09:58.275Z,26.96
2022-12-22T09:10:58.229Z,27.44
2022-12-22T09:11:58.222Z,27.62
2022-12-22T09:12:58.165Z,27.44
2022-12-22T09:13:58.123Z,28.01
2022-12-22T09:14:58.095Z,27.91
2022-12-22T09:15:58.103Z,28.77
2022-12-22T09:16:58.084Z,28.58
2022-12-22T09:17:57.986Z,29.25
2022-12-22T09:18:57.942Z,29.91
2022-12-22T09:19:57.903Z,29.63
2022-12-22T09:20:57.875Z,30.29
2022-12-22T09:21:57.840Z,31.15
2022-12-22T09:22:57.815Z,31.72
2022-12-22T09:23:57.778Z,32.29
2022-12-22T09:24:57.755Z,34.11
2022-12-22T09:25:57.695Z,34.39
2022-12-22T09:26:57.652Z,35.25
2022-12-22T09:27:57.613Z,36.01
2022-12-22T09:28:57.621Z,35.72
2022-12-22T09:29:57.541Z,35.82
2022-12-22T09:30:57.505Z,36.10
2022-12-22T09:31:57.538Z,36.58
2022-12-22T09:32:57.436Z,37.25
2022-12-22T09:33:57.392Z,37.63
2022-12-22T09:34:57.363Z,37.82
2022-12-22T09:35:57.343Z,38.10
2022-12-22T09:36:57.326Z,38.39
2022-12-22T09:37:57.263Z,38.68
2022-12-22T09:38:57.239Z,38.98
2022-12-22T09:39:57.191Z,39.44
2022-12-22T09:40:57.157Z,39.73
2022-12-22T09:41:57.119Z,40.48
2022-12-22T09:42:57.071Z,40.01
2022-12-22T09:43:57.033Z,41.16
2022-12-22T09:44:56.999Z,41.35
2022-12-22T09:45:56.992Z,41.25
2022-12-22T09:46:56.939Z,41.63
2022-12-22T09:47:56.893Z,42.68
2022-12-22T09:48:56.854Z,42.49
2022-12-22T09:49:56.831Z,42.77
2022-12-22T09:50:56.781Z,42.60
2022-12-22T09:51:56.757Z,42.80
2022-12-22T09:52:56.730Z,43.63
2022-12-22T09:53:56.702Z,44.42
2022-12-22T09:54:56.642Z,44.60
2022-12-22T09:55:56.606Z,45.75
2022-12-22T09:56:56.564Z,46.04
2022-12-22T09:57:56.529Z,47.18
2022-12-22T09:58:56.502Z,47.94
2022-12-22T09:59:56.455Z,48.52
2022-12-22T10:00:56.457Z,48.71
2022-12-22T10:01:56.492Z,49.85
2022-12-22T10:02:56.396Z,50.42
2022-12-22T10:04:00.375Z,50.71
2022-12-22T10:04:56.274Z,51.56
2022-12-22T10:05:56.237Z,51.85
2022-12-22T10:06:56.201Z,53.83
2022-12-22T10:07:56.166Z,55.26
2022-12-22T10:08:56.139Z,55.35
2022-12-22T10:09:56.096Z,56.78
2022-12-22T10:10:56.057Z,56.90
2022-12-22T10:11:56.030Z,56.78
2022-12-22T10:12:55.986Z,56.59
2022-12-22T10:13:55.994Z,55.92
2022-12-22T10:14:55.923Z,56.11
2022-12-22T10:15:55.902Z,56.21
2022-12-22T10:16:55.906Z,55.63
2022-12-22T10:17:55.809Z,55.44
2022-12-22T10:18:55.767Z,55.54
2022-12-22T10:19:55.731Z,54.71
2022-12-22T10:20:55.700Z,55.57
2022-12-22T10:21:55.669Z,56.68
2022-12-22T10:22:55.625Z,56.68
2022-12-22T10:23:55.602Z,56.02
2022-12-22T10:24:55.561Z,55.85
2022-12-22T10:26:55.481Z,55.76
2022-12-22T10:27:55.453Z,55.95
2022-12-22T10:28:55.417Z,56.81
2022-12-22T10:29:55.375Z,57.38
2022-12-22T10:30:55.336Z,57.38
2022-12-22T10:31:55.310Z,57.57
2022-12-22T10:32:55.260Z,58.14
2022-12-22T10:33:55.230Z,58.14
2022-12-22T10:34:55.188Z,58.43
2022-12-22T10:35:55.155Z,58.62
2022-12-22T10:36:55.126Z,58.62
2022-12-22T10:37:55.086Z,58.72
2022-12-22T10:38:55.053Z,59.48
2022-12-22T10:39:55.024Z,59.95
2022-12-22T10:41:01.610Z,60.33
2022-12-22T10:41:54.938Z,60.72
2022-12-22T10:42:54.906Z,61.67
2022-12-22T10:43:54.871Z,61.48
2022-12-22T10:44:54.832Z,61.57
2022-12-22T10:45:54.885Z,62.72
2022-12-22T10:46:54.769Z,63.39
2022-12-22T10:47:54.723Z,62.34
2022-12-22T10:48:54.694Z,65.48
2022-12-22T10:50:15.822Z,65.52
2022-12-22T10:50:54.619Z,66.44
2022-12-22T10:51:54.582Z,67.68
2022-12-22T10:52:54.548Z,69.10
2022-12-22T10:53:54.508Z,69.58
2022-12-22T10:54:54.471Z,70.34
2022-12-22T10:55:54.431Z,70.63
2022-12-22T10:56:54.400Z,71.39
2022-12-22T10:57:54.364Z,71.58
2022-12-22T10:58:54.342Z,72.06
2022-12-22T10:59:54.300Z,72.76
2022-12-22T11:00:54.288Z,73.72
2022-12-22T11:01:54.535Z,75.05
2022-12-22T11:02:54.307Z,77.15
2022-12-22T11:03:54.203Z,77.82
2022-12-22T11:04:54.120Z,79.25
2022-12-22T11:05:54.079Z,80.58
2022-12-22T11:06:54.043Z,81.25
2022-12-22T11:07:54.062Z,81.82
2022-12-22T11:08:58.152Z,83.06
2022-12-22T11:09:53.940Z,83.64
2022-12-22T11:10:53.901Z,83.64
2022-12-22T11:11:53.859Z,85.35
2022-12-22T11:12:53.826Z,84.74
2022-12-22T11:13:53.797Z,84.59
2022-12-22T11:14:53.774Z,84.97
2022-12-22T11:15:53.740Z,83.44
2022-12-22T11:16:53.823Z,83.25
2022-12-22T11:17:53.653Z,85.45
2022-12-22T11:18:53.612Z,85.06
2022-12-22T11:19:53.585Z,85.25
2022-12-22T11:20:53.547Z,87.26
2022-12-22T11:21:53.502Z,87.16
2022-12-22T11:22:53.470Z,87.64
2022-12-22T11:23:53.444Z,88.98
2022-12-22T11:24:53.410Z,87.64
2022-12-22T11:25:53.398Z,88.12
2022-12-22T11:26:53.333Z,87.74
2022-12-22T11:27:53.293Z,89.93
2022-12-22T11:28:53.261Z,90.03
2022-12-22T11:29:53.221Z,89.12
2022-12-22T11:30:53.195Z,91.60
2022-12-22T11:31:53.163Z,92.69
2022-12-22T11:32:53.117Z,92.60
2022-12-22T11:33:53.198Z,93.55
2022-12-22T11:34:53.049Z,92.98
2022-12-22T11:35:53.015Z,93.08
2022-12-22T11:36:52.981Z,93.84
2022-12-22T11:37:52.960Z,94.32
2022-12-22T11:38:52.911Z,94.60
2022-12-22T11:39:57.495Z,93.55
2022-12-22T11:40:52.836Z,93.41
2022-12-22T11:41:52.796Z,93.27
2022-12-22T11:42:52.762Z,94.17
2022-12-22T11:43:52.732Z,93.32
2022-12-22T11:44:52.695Z,94.46
2022-12-22T11:45:52.720Z,93.27
2022-12-22T11:46:52.712Z,95.08
2022-12-22T11:47:52.590Z,94.70
2022-12-22T11:48:52.549Z,96.32
2022-12-22T11:49:52.514Z,96.51
2022-12-22T11:51:01.997Z,96.41
2022-12-22T11:51:52.443Z,97.46
2022-12-22T11:52:52.406Z,96.13
2022-12-22T11:53:52.375Z,97.94
2022-12-22T11:54:52.340Z,97.37
2022-12-22T11:55:52.305Z,97.22
2022-12-22T11:56:52.265Z,97.80
2022-12-22T11:57:52.232Z,98.94
2022-12-22T11:58:52.199Z,97.46
2022-12-22T11:59:52.158Z,98.51
2022-12-22T12:01:22.336Z,97.66
2022-12-22T12:01:52.142Z,97.75
2022-12-22T12:02:52.093Z,98.90
2022-12-22T12:03:52.053Z,98.42
2022-12-22T12:04:51.987Z,98.13
2022-12-22T12:05:51.966Z,98.03
2022-12-22T12:06:51.918Z,98.13
2022-12-22T12:07:51.894Z,97.75
2022-12-22T12:08:51.851Z,98.22
2022-12-22T12:09:51.812Z,98.03
2022-12-22T12:10:51.789Z,98.13
2022-12-22T12:11:51.736Z,98.13
2022-12-22T12:12:51.714Z,97.56
2022-12-22T12:13:51.661Z,98.32
2022-12-22T12:14:51.633Z,98.13
2022-12-22T12:15:51.637Z,98.61
2022-12-22T12:16:51.561Z,98.56
2022-12-22T12:17:51.533Z,97.99
2022-12-22T12:18:51.502Z,98.13
2022-12-22T12:19:51.469Z,98.70
2022-12-22T12:20:51.419Z,98.80
2022-12-22T12:21:51.443Z,98.32
2022-12-22T12:22:51.345Z,98.51
2022-12-22T12:23:51.318Z,98.61
2022-12-22T12:24:51.287Z,98.42
2022-12-22T12:25:51.238Z,98.70
2022-12-22T12:26:51.204Z,98.22
2022-12-22T12:27:51.170Z,98.90
2022-12-22T12:28:51.130Z,99.18
2022-12-22T12:30:13.535Z,99.08
2022-12-22T12:30:51.110Z,98.80
2022-12-22T12:31:51.068Z,99.08
2022-12-22T12:32:50.989Z,99.04
2022-12-22T12:33:50.961Z,99.13
2022-12-22T12:34:50.921Z,99.27
2022-12-22T12:35:50.885Z,99.37
2022-12-22T12:36:50.849Z,99.27
2022-12-22T12:37:50.819Z,99.18
2022-12-22T12:39:08.384Z,99.42
2022-12-22T12:39:50.747Z,99.99
2022-12-22T12:40:50.710Z,99.99
2022-12-22T12:41:50.691Z,99.66
2022-12-22T12:42:50.635Z,99.18
2022-12-22T12:43:50.593Z,99.46
2022-12-22T12:44:50.567Z,99.42
2022-12-22T12:45:50.527Z,99.42
2022-12-22T12:46:50.629Z,99.32
2022-12-22T12:47:50.454Z,99.42
2022-12-22T12:48:50.431Z,98.94
2022-12-22T12:49:50.396Z,99.32
2022-12-22T12:50:50.354Z,99.99
2022-12-22T12:51:50.348Z,99.80
2022-12-22T12:52:50.321Z,99.99